createdAt,value
2022-11-15T00:00:55.383Z,54.20
2022-11-15T00:03:24.825Z,56.13
2022-11-15T00:05:51.564Z,49.43
2022-11-15T00:08:18.058Z,47.07
2022-11-15T00:10:55.220Z,51.70
2022-11-15T00:13:21.624Z,50.80
2022-11-15T00:15:48.042Z,55.03
2022-11-15T00:18:15.198Z,55.43
2022-11-15T00:20:41.707Z,53.00
2022-11-15T00:23:08.376Z,50.93
2022-11-15T00:25:35.147Z,55.17
2022-11-15T00:28:04.472Z,50.37
2022-11-15T00:30:31.651Z,47.07
2022-11-15T00:33:02.044Z,50.67
2022-11-15T00:35:28.561Z,50.87
2022-11-15T00:37:55.025Z,50.90
2022-11-15T00:40:21.421Z,50.57
2022-11-15T00:42:47.829Z,46.40
2022-11-15T00:45:14.313Z,49.23
2022-11-15T00:47:46.282Z,46.10
2022-11-15T00:50:15.103Z,47.27
2022-11-15T00:52:42.322Z,39.93
2022-11-15T00:55:14.732Z,49.30
2022-11-15T00:57:41.159Z,46.70
2022-11-15T01:00:08.320Z,50.70
2022-11-15T01:02:35.754Z,51.53
2022-11-15T01:05:02.241Z,49.13
2022-11-15T01:07:28.747Z,45.77
2022-11-15T01:09:55.170Z,46.87
2022-11-15T01:12:21.651Z,45.60
2022-11-15T01:14:48.107Z,44.00
2022-11-15T01:17:14.518Z,42.47
2022-11-15T01:19:40.922Z,47.40
2022-11-15T01:22:07.365Z,38.37
2022-11-15T01:24:33.853Z,44.33
2022-11-15T01:27:00.339Z,40.40
2022-11-15T01:29:26.819Z,43.03
2022-11-15T01:31:55.151Z,40.33
2022-11-15T01:34:21.576Z,42.30
2022-11-15T01:36:47.978Z,42.37
2022-11-15T01:39:14.526Z,41.10
2022-11-15T01:41:40.986Z,43.73
2022-11-15T01:44:32.324Z,40.10
2022-11-15T01:47:01.994Z,41.70
2022-11-15T01:49:33.369Z,39.80
2022-11-15T01:52:03.582Z,42.73
2022-11-15T01:54:30.782Z,43.37
2022-11-15T01:57:04.792Z,36.60
2022-11-15T01:59:31.831Z,39.37
2022-11-15T02:01:58.555Z,42.60
2022-11-15T02:04:33.984Z,40.43
2022-11-15T02:07:04.499Z,39.17
2022-11-15T02:09:31.711Z,43.83
2022-11-15T02:11:58.602Z,43.30
2022-11-15T02:14:27.603Z,39.13
2022-11-15T02:17:10.377Z,37.77
2022-11-15T02:20:12.211Z,41.47
2022-11-15T02:23:07.548Z,38.83
2022-11-15T02:25:37.067Z,39.63
2022-11-15T02:28:33.447Z,42.43
2022-11-15T02:31:23.845Z,40.83
2022-11-15T02:33:57.875Z,38.30
2022-11-15T02:36:41.079Z,37.17
2022-11-15T02:39:35.799Z,45.07
2022-11-15T02:42:30.388Z,39.00
2022-11-15T02:44:59.250Z,38.80
2022-11-15T02:47:28.883Z,42.47
2022-11-15T02:50:09.268Z,39.80
2022-11-15T02:52:35.736Z,41.30
2022-11-15T02:55:03.337Z,40.47
2022-11-15T02:57:48.468Z,39.63
2022-11-15T03:00:20.444Z,38.93
2022-11-15T03:03:20.910Z,41.37
2022-11-15T03:06:09.217Z,36.73
2022-11-15T03:08:46.626Z,37.83
2022-11-15T03:11:16.679Z,39.73
2022-11-15T03:13:58.763Z,37.83
2022-11-15T03:16:27.947Z,42.17
2022-11-15T03:19:04.217Z,36.27
2022-11-15T03:21:33.277Z,37.67
2022-11-15T03:24:04.919Z,37.10
2022-11-15T03:26:33.366Z,40.60
2022-11-15T03:29:09.114Z,37.00
2022-11-15T03:31:51.157Z,37.87
2022-11-15T03:34:39.537Z,35.57
2022-11-15T03:37:06.941Z,37.77
2022-11-15T03:39:34.096Z,36.47
2022-11-15T03:42:07.993Z,36.27
2022-11-15T03:44:47.700Z,37.80
2022-11-15T03:47:24.590Z,33.23
2022-11-15T03:50:00.267Z,35.83
2022-11-15T03:52:26.768Z,35.17
2022-11-15T03:54:57.672Z,37.43
2022-11-15T03:57:24.142Z,33.93
2022-11-15T03:59:52.898Z,35.03
2022-11-15T04:02:19.333Z,36.17
2022-11-15T04:04:45.852Z,33.43
2022-11-15T04:07:12.616Z,31.90
2022-11-15T04:09:59.322Z,34.90
2022-11-15T04:12:31.911Z,32.97
2022-11-15T04:15:10.622Z,31.70
2022-11-15T04:17:47.869Z,33.90
2022-11-15T04:20:35.274Z,30.50
2022-11-15T04:23:22.496Z,61.83
2022-11-15T04:25:52.162Z,39.20
2022-11-15T04:28:19.154Z,31.33
2022-11-15T04:30:45.624Z,31.87
2022-11-15T04:33:12.099Z,35.33
2022-11-15T04:35:38.633Z,30.20
2022-11-15T04:38:07.630Z,31.30
2022-11-15T04:40:34.744Z,30.70
2022-11-15T04:43:04.000Z,31.17
2022-11-15T04:45:31.413Z,31.00
2022-11-15T04:47:57.869Z,30.57
2022-11-15T04:50:24.297Z,39.10
2022-11-15T04:52:53.481Z,31.60
2022-11-15T04:55:20.342Z,29.43
2022-11-15T04:57:46.884Z,30.23
2022-11-15T05:00:15.953Z,28.27
2022-11-15T05:03:00.855Z,30.80
2022-11-15T05:05:27.313Z,28.30
2022-11-15T05:07:53.772Z,31.23
2022-11-15T05:10:20.217Z,27.20
2022-11-15T05:12:47.757Z,27.63
2022-11-15T05:15:14.303Z,28.37
2022-11-15T05:17:40.755Z,27.30
2022-11-15T05:20:07.835Z,30.43
2022-11-15T05:22:34.369Z,32.17
2022-11-15T05:25:00.859Z,26.17
2022-11-15T05:27:27.334Z,33.07
2022-11-15T05:29:53.793Z,30.43
2022-11-15T05:32:20.194Z,28.67
2022-11-15T05:34:47.413Z,28.27
2022-11-15T05:37:15.210Z,24.57
2022-11-15T05:39:41.693Z,26.43
2022-11-15T05:42:14.324Z,28.67
2022-11-15T05:44:45.645Z,28.87
2022-11-15T05:47:18.130Z,28.60
2022-11-15T05:49:46.448Z,28.00
2022-11-15T05:52:16.430Z,26.93
2022-11-15T05:54:43.608Z,26.90
2022-11-15T05:57:10.154Z,27.30
2022-11-15T05:59:37.313Z,25.43
2022-11-15T06:02:03.940Z,29.33
2022-11-15T06:04:30.463Z,28.53
2022-11-15T06:06:58.882Z,24.70
2022-11-15T06:09:25.384Z,26.60
2022-11-15T06:11:51.793Z,27.43
2022-11-15T06:14:18.198Z,26.67
2022-11-15T06:16:45.073Z,27.33
2022-11-15T06:19:11.552Z,24.93
2022-11-15T06:21:38.015Z,27.63
2022-11-15T06:24:05.575Z,27.47
2022-11-15T06:26:32.630Z,28.03
2022-11-15T06:28:59.137Z,24.43
2022-11-15T06:31:25.656Z,25.63
2022-11-15T06:33:52.128Z,26.83
2022-11-15T06:36:19.095Z,27.53
2022-11-15T06:38:45.985Z,37.63
2022-11-15T06:41:13.858Z,28.73
2022-11-15T06:43:40.880Z,25.93
2022-11-15T06:46:07.988Z,24.27
2022-11-15T06:48:35.393Z,29.07
2022-11-15T06:51:03.540Z,29.90
2022-11-15T06:53:31.387Z,24.00
2022-11-15T06:56:02.409Z,24.33
2022-11-15T06:58:28.944Z,24.50
2022-11-15T07:00:59.757Z,27.40
2022-11-15T07:03:26.871Z,29.87
2022-11-15T07:05:55.682Z,25.63
2022-11-15T07:08:23.296Z,26.93
2022-11-15T07:10:50.223Z,26.23
2022-11-15T07:13:17.017Z,28.00
2022-11-15T07:15:43.565Z,27.83
2022-11-15T07:18:10.081Z,24.40
2022-11-15T07:20:36.498Z,28.07
2022-11-15T07:23:06.971Z,26.87
2022-11-15T07:25:33.753Z,25.07
2022-11-15T07:28:01.079Z,23.17
2022-11-15T07:30:28.809Z,27.17
2022-11-15T07:32:56.692Z,26.33
2022-11-15T07:35:24.338Z,25.37
2022-11-15T07:37:58.527Z,27.27
2022-11-15T07:40:25.988Z,24.93
2022-11-15T07:42:55.386Z,25.00
2022-11-15T07:45:22.659Z,30.27
2022-11-15T07:47:50.725Z,25.70
2022-11-15T07:50:18.484Z,25.87
2022-11-15T07:52:45.407Z,27.63
2022-11-15T07:55:12.056Z,28.37
2022-11-15T07:57:38.555Z,26.13
2022-11-15T08:00:06.464Z,27.87
2022-11-15T08:02:33.117Z,22.87
2022-11-15T08:05:00.299Z,27.37
2022-11-15T08:07:29.947Z,25.43
2022-11-15T08:09:56.501Z,27.07
2022-11-15T08:12:23.358Z,25.27
2022-11-15T08:14:50.361Z,24.93
2022-11-15T08:17:16.853Z,28.63
2022-11-15T08:19:43.299Z,25.10
2022-11-15T08:22:09.776Z,22.10
2022-11-15T08:24:36.266Z,24.43
2022-11-15T08:27:02.785Z,23.37
2022-11-15T08:29:29.297Z,22.43
2022-11-15T08:31:57.107Z,23.83
2022-11-15T08:34:23.554Z,29.13
2022-11-15T08:36:50.195Z,23.83
2022-11-15T08:39:16.641Z,25.90
2022-11-15T08:41:43.058Z,24.43
2022-11-15T08:44:09.509Z,28.03
2022-11-15T08:46:35.929Z,24.27
2022-11-15T08:49:02.340Z,26.73
2022-11-15T08:51:28.827Z,21.97
2022-11-15T08:53:55.298Z,29.73
2022-11-15T08:56:21.763Z,23.97
2022-11-15T08:58:48.605Z,24.30
2022-11-15T09:01:20.486Z,23.67
2022-11-15T09:03:46.946Z,23.27
2022-11-15T09:06:13.782Z,25.47
2022-11-15T09:08:47.016Z,25.40
2022-11-15T09:11:14.190Z,25.10
2022-11-15T09:13:40.719Z,21.93
2022-11-15T09:16:07.695Z,23.03
2022-11-15T09:18:34.447Z,20.87
2022-11-15T09:21:03.227Z,21.03
2022-11-15T09:23:29.953Z,22.70
2022-11-15T09:26:02.176Z,23.57
2022-11-15T09:28:29.943Z,21.20
2022-11-15T09:31:01.069Z,19.80
2022-11-15T09:33:28.134Z,20.43
2022-11-15T09:35:55.207Z,22.73
2022-11-15T09:38:21.879Z,25.27
2022-11-15T09:40:58.484Z,24.77
2022-11-15T09:43:31.953Z,21.87
2022-11-15T09:46:16.205Z,25.07
2022-11-15T09:48:55.268Z,21.03
2022-11-15T09:51:28.503Z,27.73
2022-11-15T09:57:05.185Z,24.53
2022-11-15T09:59:43.551Z,19.00
2022-11-15T10:02:47.246Z,22.43
2022-11-15T10:05:19.215Z,20.00
2022-11-15T10:07:59.410Z,17.60
2022-11-15T10:10:47.740Z,20.23
2022-11-15T10:13:23.580Z,20.70
2022-11-15T10:15:51.979Z,21.37
2022-11-15T10:18:35.595Z,25.27
2022-11-15T10:21:18.569Z,22.40
2022-11-15T10:23:45.194Z,20.03
2022-11-15T10:26:16.500Z,19.67
2022-11-15T10:28:42.949Z,23.57
2022-11-15T10:31:28.678Z,17.33
2022-11-15T10:34:13.652Z,19.20
2022-11-15T10:36:54.909Z,18.67
2022-11-15T10:42:18.134Z,16.47
2022-11-15T10:44:45.965Z,17.60
2022-11-15T10:47:37.830Z,19.77
2022-11-15T10:50:28.090Z,16.10
2022-11-15T10:52:54.827Z,17.83
2022-11-15T10:55:28.982Z,20.13
2022-11-15T10:58:34.270Z,19.57
2022-11-15T11:01:11.595Z,17.70
2022-11-15T11:03:40.197Z,16.60
2022-11-15T11:06:17.903Z,17.27
2022-11-15T11:09:06.244Z,17.37
2022-11-15T11:11:47.448Z,17.00
2022-11-15T11:14:23.280Z,17.83
2022-11-15T11:16:56.294Z,17.17
2022-11-15T11:19:42.769Z,14.13
2022-11-15T11:22:40.338Z,15.23
2022-11-15T11:25:23.830Z,15.13
2022-11-15T11:28:02.359Z,17.77
2022-11-15T11:30:46.907Z,17.47
2022-11-15T11:33:50.652Z,17.73
2022-11-15T11:36:28.391Z,14.13
2022-11-15T11:38:56.196Z,16.63
2022-11-15T11:41:50.861Z,16.57
2022-11-15T11:44:42.472Z,15.07
2022-11-15T11:47:17.165Z,20.10
2022-11-15T11:49:57.947Z,16.40
2022-11-15T11:52:42.489Z,15.33
2022-11-15T11:55:18.024Z,18.00
2022-11-15T11:58:05.692Z,17.67
2022-11-15T12:00:37.051Z,17.50
2022-11-15T12:03:15.196Z,19.83
2022-11-15T12:05:50.154Z,17.60
2022-11-15T12:08:19.355Z,14.00
2022-11-15T12:10:51.681Z,19.80
2022-11-15T12:13:24.533Z,18.13
2022-11-15T12:16:10.447Z,17.27
2022-11-15T12:18:37.871Z,14.47
2022-11-15T12:21:15.764Z,14.10
2022-11-15T12:23:49.174Z,15.87
2022-11-15T12:26:27.130Z,14.83
2022-11-15T12:29:07.595Z,12.83
2022-11-15T12:31:52.414Z,12.63
2022-11-15T12:34:21.718Z,16.00
2022-11-15T12:36:50.244Z,13.80
2022-11-15T12:39:17.958Z,18.07
2022-11-15T12:42:05.869Z,14.73
2022-11-15T12:44:32.313Z,23.07
2022-11-15T12:46:58.745Z,16.37
2022-11-15T12:49:43.394Z,15.73
2022-11-15T12:52:10.880Z,17.20
2022-11-15T12:54:37.274Z,15.33
2022-11-15T12:57:03.713Z,13.47
2022-11-15T12:59:54.215Z,14.13
2022-11-15T13:02:24.918Z,15.00
2022-11-15T13:04:53.405Z,14.90
2022-11-15T13:07:41.872Z,11.23
2022-11-15T13:10:11.416Z,11.93
2022-11-15T13:12:43.671Z,12.60
2022-11-15T13:15:13.168Z,11.93
2022-11-15T13:17:56.813Z,14.43
2022-11-15T13:20:32.020Z,15.57
2022-11-15T13:23:16.780Z,15.17
2022-11-15T13:25:58.429Z,10.80
2022-11-15T13:28:38.510Z,16.73
2022-11-15T13:31:38.066Z,16.53
2022-11-15T13:37:23.578Z,15.77
2022-11-15T13:39:50.748Z,13.60
2022-11-15T13:42:19.182Z,11.70
2022-11-15T13:44:57.659Z,15.70
2022-11-15T13:47:28.138Z,14.77
2022-11-15T13:49:54.676Z,14.80
2022-11-15T13:52:22.542Z,12.87
2022-11-15T13:55:00.525Z,15.33
2022-11-15T13:57:31.169Z,12.67
2022-11-15T14:00:02.164Z,17.17
2022-11-15T14:02:33.746Z,14.33
2022-11-15T14:05:16.393Z,17.00
2022-11-15T14:07:55.005Z,10.63
2022-11-15T14:10:33.773Z,11.77
2022-11-15T14:13:01.412Z,16.57
2022-11-15T14:15:36.622Z,18.43
2022-11-15T14:18:04.661Z,17.77
2022-11-15T14:20:37.761Z,13.73
2022-11-15T14:23:19.210Z,13.90
2022-11-15T14:25:54.612Z,16.07
2022-11-15T14:28:24.199Z,12.67
2022-11-15T14:30:55.521Z,15.00
2022-11-15T14:33:26.483Z,12.17
2022-11-15T14:35:54.060Z,13.37
2022-11-15T14:38:20.741Z,15.20
2022-11-15T14:40:47.524Z,15.80
2022-11-15T14:43:14.422Z,12.83
2022-11-15T14:45:41.584Z,13.70
2022-11-15T14:48:08.505Z,15.13
2022-11-15T14:50:35.960Z,15.53
2022-11-15T14:53:03.383Z,12.00
2022-11-15T14:55:34.795Z,15.23
2022-11-15T14:58:03.310Z,11.20
2022-11-15T15:00:35.409Z,14.67
2022-11-15T15:03:03.149Z,16.83
2022-11-15T15:05:35.284Z,12.77
2022-11-15T15:08:01.851Z,13.23
2022-11-15T15:10:39.959Z,16.17
2022-11-15T15:13:11.452Z,16.33
2022-11-15T15:15:38.733Z,13.20
2022-11-15T15:18:05.919Z,13.63
2022-11-15T15:20:33.415Z,14.23
2022-11-15T15:22:59.885Z,16.97
2022-11-15T15:25:33.027Z,25.73
2022-11-15T15:28:00.471Z,19.50
2022-11-15T15:30:29.942Z,15.83
2022-11-15T15:32:56.760Z,12.87
2022-11-15T15:35:23.729Z,12.70
2022-11-15T15:37:51.157Z,14.73
2022-11-15T15:40:21.151Z,13.40
2022-11-15T15:42:48.744Z,14.10
2022-11-15T15:45:16.497Z,15.47
2022-11-15T15:47:43.608Z,16.20
2022-11-15T15:50:33.120Z,14.50
2022-11-15T15:53:01.816Z,17.13
2022-11-15T15:55:28.903Z,12.90
2022-11-15T15:57:55.641Z,15.43
2022-11-15T16:00:24.641Z,12.83
2022-11-15T16:02:51.768Z,14.23
2022-11-15T16:05:18.717Z,15.53
2022-11-15T16:07:47.389Z,16.57
2022-11-15T16:10:21.397Z,14.63
2022-11-15T16:12:48.818Z,15.10
2022-11-15T16:15:15.627Z,17.13
2022-11-15T16:17:48.016Z,15.93
2022-11-15T16:20:45.462Z,14.40
2022-11-15T16:23:15.426Z,16.73
2022-11-15T16:25:59.028Z,31.80
2022-11-15T16:28:28.003Z,18.60
2022-11-15T16:31:07.142Z,15.93
2022-11-15T16:33:34.255Z,18.67
2022-11-15T16:36:01.147Z,17.60
2022-11-15T16:38:28.165Z,18.70
2022-11-15T16:40:54.668Z,18.17
2022-11-15T16:43:21.103Z,15.93
2022-11-15T16:45:47.911Z,15.37
2022-11-15T16:48:25.578Z,18.13
2022-11-15T16:50:56.348Z,16.87
2022-11-15T16:53:23.898Z,16.87
2022-11-15T16:55:50.425Z,16.67
2022-11-15T16:58:16.850Z,19.83
2022-11-15T17:00:43.547Z,16.53
2022-11-15T17:03:10.123Z,19.63
2022-11-15T17:05:37.085Z,18.33
2022-11-15T17:08:03.543Z,17.90
2022-11-15T17:10:30.290Z,19.00
2022-11-15T17:12:56.891Z,16.53
2022-11-15T17:15:24.558Z,14.40
2022-11-15T17:17:55.074Z,16.73
2022-11-15T17:20:23.798Z,22.63
2022-11-15T17:22:50.336Z,16.57
2022-11-15T17:25:17.008Z,21.57
2022-11-15T17:27:43.516Z,23.97
2022-11-15T17:30:15.229Z,16.83
2022-11-15T17:32:42.979Z,24.03
2022-11-15T17:35:43.446Z,19.10
2022-11-15T17:38:09.959Z,17.97
2022-11-15T17:40:36.421Z,16.03
2022-11-15T17:43:04.749Z,15.17
2022-11-15T17:45:31.210Z,17.47
2022-11-15T17:47:57.667Z,19.10
2022-11-15T17:50:24.137Z,18.47
2022-11-15T17:52:50.666Z,16.00
2022-11-15T17:55:17.086Z,15.77
2022-11-15T17:57:44.221Z,18.70
2022-11-15T18:00:11.471Z,17.70
2022-11-15T18:02:38.034Z,19.77
2022-11-15T18:05:04.879Z,23.83
2022-11-15T18:07:31.392Z,22.00
2022-11-15T18:09:57.932Z,17.47
2022-11-15T18:12:24.489Z,20.17
2022-11-15T18:14:50.944Z,22.40
2022-11-15T18:17:19.067Z,17.43
2022-11-15T18:19:45.550Z,18.23
2022-11-15T18:22:12.017Z,19.10
2022-11-15T18:24:38.715Z,18.33
2022-11-15T18:27:06.397Z,23.20
2022-11-15T18:29:34.643Z,20.17
2022-11-15T18:32:03.998Z,20.00
2022-11-15T18:34:32.574Z,16.30
2022-11-15T18:37:00.487Z,23.10
2022-11-15T18:39:26.992Z,18.53
2022-11-15T18:41:53.612Z,17.47
2022-11-15T18:44:20.086Z,19.43
2022-11-15T18:46:46.621Z,16.60
2022-11-15T18:49:15.214Z,19.10
2022-11-15T18:51:42.231Z,15.77
2022-11-15T18:54:13.555Z,16.00
2022-11-15T18:56:40.643Z,18.67
2022-11-15T18:59:08.804Z,17.53
2022-11-15T19:01:40.244Z,18.90
2022-11-15T19:04:09.856Z,18.17
2022-11-15T19:06:41.947Z,19.83
2022-11-15T19:09:10.297Z,18.30
2022-11-15T19:11:39.460Z,17.57
2022-11-15T19:14:11.438Z,17.27
2022-11-15T19:16:40.656Z,19.80
2022-11-15T19:19:11.446Z,22.90
2022-11-15T19:21:38.360Z,17.43
2022-11-15T19:24:05.582Z,16.80
2022-11-15T19:26:32.380Z,18.37
2022-11-15T19:29:01.290Z,17.53
2022-11-15T19:31:29.647Z,17.93
2022-11-15T19:33:58.830Z,14.10
2022-11-15T19:36:28.941Z,16.40
2022-11-15T19:38:56.485Z,16.67
2022-11-15T19:41:25.933Z,17.90
2022-11-15T19:43:52.854Z,26.17
2022-11-15T19:46:21.916Z,19.67
2022-11-15T19:48:48.669Z,18.33
2022-11-15T19:51:19.243Z,14.33
2022-11-15T19:53:45.915Z,15.57
2022-11-15T19:56:17.908Z,19.00
2022-11-15T19:58:45.740Z,17.13
2022-11-15T20:01:32.372Z,20.00
2022-11-15T20:04:00.008Z,20.30
2022-11-15T20:06:39.271Z,16.90
2022-11-15T20:09:18.361Z,20.13
2022-11-15T20:11:45.065Z,19.43
2022-11-15T20:14:13.708Z,20.07
2022-11-15T20:16:40.535Z,20.07
2022-11-15T20:19:08.487Z,21.23
2022-11-15T20:21:35.899Z,22.27
2022-11-15T20:24:02.323Z,22.03
2022-11-15T20:26:30.416Z,17.47
2022-11-15T20:29:01.174Z,30.30
2022-11-15T20:31:28.356Z,21.73
2022-11-15T20:33:54.872Z,23.40
2022-11-15T20:36:21.335Z,19.83
2022-11-15T20:38:47.837Z,21.20
2022-11-15T20:41:14.780Z,20.33
2022-11-15T20:43:43.508Z,20.60
2022-11-15T20:46:12.107Z,21.87
2022-11-15T20:48:38.737Z,25.90
2022-11-15T20:51:06.610Z,20.13
2022-11-15T20:53:33.417Z,21.77
2022-11-15T20:56:14.582Z,22.80
2022-11-15T20:58:41.895Z,21.00
2022-11-15T21:01:10.712Z,21.90
2022-11-15T21:03:37.411Z,28.90
2022-11-15T21:06:03.945Z,23.07
2022-11-15T21:08:53.681Z,22.47
2022-11-15T21:11:42.070Z,26.43
2022-11-15T21:14:09.752Z,24.03
2022-11-15T21:16:36.740Z,22.87
2022-11-15T21:19:05.565Z,22.27
2022-11-15T21:21:32.198Z,25.63
2022-11-15T21:23:58.707Z,24.60
2022-11-15T21:26:26.447Z,27.27
2022-11-15T21:28:52.910Z,19.87
2022-11-15T21:31:19.313Z,22.10
2022-11-15T21:33:45.767Z,21.73
2022-11-15T21:36:12.626Z,26.00
2022-11-15T21:38:39.054Z,24.80
2022-11-15T21:41:06.116Z,20.77
2022-11-15T21:43:32.712Z,21.57
2022-11-15T21:46:04.378Z,21.47
2022-11-15T21:48:33.119Z,20.00
2022-11-15T21:51:05.498Z,25.53
2022-11-15T21:53:32.726Z,24.67
2022-11-15T21:56:00.271Z,20.57
2022-11-15T21:58:27.084Z,20.93
2022-11-15T22:01:15.386Z,21.90
2022-11-15T22:03:42.647Z,22.57
2022-11-15T22:06:16.011Z,21.83
2022-11-15T22:08:44.682Z,23.07
2022-11-15T22:11:11.121Z,25.30
2022-11-15T22:13:37.938Z,23.63
2022-11-15T22:16:04.540Z,22.10
2022-11-15T22:18:31.234Z,22.47
2022-11-15T22:21:00.650Z,23.27
2022-11-15T22:23:29.716Z,27.43
2022-11-15T22:25:56.828Z,23.67
2022-11-15T22:28:24.072Z,23.83
2022-11-15T22:30:53.387Z,24.20
2022-11-15T22:33:22.389Z,25.43
2022-11-15T22:35:49.705Z,24.27
2022-11-15T22:38:16.548Z,27.20
2022-11-15T22:40:43.755Z,23.93
2022-11-15T22:43:13.131Z,25.30
2022-11-15T22:45:55.975Z,23.80
2022-11-15T22:48:29.249Z,23.63
2022-11-15T22:50:56.425Z,26.77
2022-11-15T22:53:23.782Z,23.27
2022-11-15T22:55:56.182Z,25.63
2022-11-15T22:58:24.753Z,24.67
2022-11-15T23:00:52.978Z,25.73
2022-11-15T23:03:20.815Z,22.50
2022-11-15T23:05:48.114Z,24.13
2022-11-15T23:08:14.912Z,23.20
2022-11-15T23:11:00.352Z,26.10
2022-11-15T23:13:29.225Z,24.97
2022-11-15T23:16:23.999Z,22.60
2022-11-15T23:18:51.730Z,22.90
2022-11-15T23:21:43.577Z,22.87
2022-11-15T23:24:11.952Z,26.47
2022-11-15T23:26:39.411Z,25.97
2022-11-15T23:29:08.128Z,23.70
2022-11-15T23:32:01.163Z,26.93
2022-11-15T23:34:29.369Z,24.63
2022-11-15T23:36:55.952Z,27.10
2022-11-15T23:39:22.564Z,22.37
2022-11-15T23:41:49.085Z,26.00
2022-11-15T23:44:15.657Z,26.20
2022-11-15T23:46:42.297Z,25.23
2022-11-15T23:49:08.898Z,25.00
2022-11-15T23:51:36.016Z,24.40
2022-11-15T23:54:02.548Z,29.33
2022-11-15T23:56:29.119Z,24.70
2022-11-15T23:58:55.813Z,28.40
